• Join FlightAware (Why Join?)
  • Login
  • US Flag 
07:43PM EDT


 

Airport Tracker/Info


-or-


 

Live Flight TrackerFlight Track Log ✈ SLI536 ✈ 26-May-2013 ✈ MMMD / MID - MMMX / MEX

Flight Track Log - Related Links

Times and Time Zones

All times are in EDT time to prevent confusion due to time zone crossing. See the SLI536 flight status page for this flight to view local times or setup timezone preferences in your user account.

Time Position Orientation Groundspeed Altitude Reporting Facility
EDT Latitude Longitude Course Direction KTS MPH feet Rate Location/Type
10:43AM 20.8568 -90.2608 262° West  Level Estimated
10:44AM 20.8466 -90.3362 262° West  Level Estimated
10:45AM 20.8327 -90.4393 262° West  Level Estimated
10:46AM 20.8186 -90.5425 262° West  Level Estimated
10:47AM 20.8045 -90.6456 262° West  Level Estimated
10:48AM 20.7904 -90.7487 262° West  Level Estimated
10:49AM 20.7761 -90.8518 262° West  Level Estimated
10:50AM 20.7618 -90.9549 262° West  Level Estimated
10:51AM 20.7475 -91.0580 262° West  Level Estimated
10:52AM 20.7331 -91.1610 262° West  Level Estimated
10:53AM 20.7186 -91.2640 261° West  Level Estimated
10:54AM 20.7041 -91.3670 261° West  Level Estimated
10:55AM 20.6895 -91.4700 261° West  Level Estimated
10:56AM 20.6748 -91.5730 261° West  Level Estimated
10:57AM 20.6601 -91.6759 261° West  Level Estimated
10:58AM 20.6453 -91.7788 261° West  Level Estimated
10:59AM 20.6305 -91.8817 261° West  Level Estimated
11:00AM 20.6156 -91.9846 261° West  Level Estimated
11:01AM 20.6006 -92.0875 261° West  Level Estimated
11:02AM 20.5856 -92.1903 261° West  Level Estimated
11:03AM 20.5705 -92.2931 261° West  Level Estimated
11:04AM 20.5554 -92.3959 261° West  Level Estimated
11:05AM 20.5402 -92.4987 261° West  Level Estimated
11:06AM 20.5249 -92.6015 261° West  Level Estimated
11:07AM 20.5096 -92.7042 261° West  Level Estimated
11:08AM 20.4942 -92.8069 261° West  Level Estimated
11:09AM 20.4787 -92.9096 261° West  Level Estimated
11:10AM 20.4632 -93.0123 261° West  Level Estimated
11:11AM 20.4477 -93.1149 261° West  Level Estimated
11:12AM 20.4320 -93.2176 261° West  Level Estimated
11:13AM 20.4163 -93.3202 261° West  Level Estimated
11:14AM 20.4006 -93.4228 261° West  Level Estimated
11:15AM 20.3848 -93.5253 261° West  Level Estimated
11:16AM 20.3689 -93.6279 261° West  Level Estimated
11:17AM 20.3530 -93.7304 261° West  Level Estimated
11:18AM 20.3370 -93.8329 261° West  Level Estimated
11:19AM 20.3209 -93.9354 261° West  Level Estimated
11:20AM 20.3048 -94.0379 261° West  Level Estimated
11:21AM 20.2887 -94.1403 260° West  Level Estimated
11:22AM 20.2724 -94.2427 260° West  Level Estimated
11:23AM 20.2562 -94.3451 260° West  Level Estimated
11:24AM 20.2398 -94.4475 260° West  Level Estimated
11:25AM 20.2234 -94.5499 260° West  Level Estimated
11:26AM 20.2070 -94.6522 260° West  Level Estimated
11:27AM 20.1904 -94.7545 260° West  Level Estimated
11:28AM 20.1739 -94.8568 260° West  Level Estimated
11:29AM 20.1572 -94.9591 260° West  Level Estimated
11:30AM 20.1405 -95.0613 260° West  Level Estimated
11:31AM 20.1238 -95.1636 260° West  Level Estimated
11:32AM 20.1069 -95.2658 260° West  Level Estimated
11:33AM 20.0901 -95.3680 260° West  Level Estimated
11:34AM 20.0731 -95.4701 260° West  Level Estimated
11:35AM 20.0561 -95.5723 260° West  Level Estimated
11:36AM 20.0391 -95.6744 260° West  Level Estimated
11:37AM 20.0220 -95.7765 260° West  Level Estimated
11:38AM 20.0048 -95.8785 260° West  Level Estimated
11:39AM 19.9876 -95.9806 260° West  Level Estimated
11:40AM 19.9703 -96.0826 260° West  Level Estimated
11:41AM 19.9529 -96.1846 260° West  Level Estimated
11:42AM 19.9356 -96.2866 260° West  Level Estimated
11:43AM 19.9181 -96.3885 260° West  Level Estimated
11:44AM 19.9006 -96.4905 260° West  Level Estimated
11:45AM 19.8830 -96.5924 260° West  Level Estimated
11:46AM 19.8654 -96.6943 260° West  Level Estimated
11:47AM 19.8477 -96.7962 260° West  Level Estimated
11:48AM 19.8299 -96.8980 260° West  Level Estimated
11:49AM 19.8121 -96.9998 259° West  Level Estimated
11:50AM 19.7942 -97.1016 259° West  Level Estimated
11:51AM 19.7763 -97.2034 259° West  Level Estimated
11:52AM 19.7583 -97.3052 259° West  Level Estimated
11:53AM 19.7403 -97.4069 259° West  Level Estimated
11:54AM 19.7222 -97.5086 259° West  Level Estimated
11:55AM 19.7041 -97.6103 259° West  Level Estimated
11:56AM 19.6858 -97.7120 259° West  Level Estimated
11:57AM 19.6676 -97.8136 259° West  Level Estimated
11:58AM 19.6493 -97.9152 259° West  Level Estimated
11:59AM 19.6309 -98.0168 259° West  Level Estimated
12:00PM 19.6124 -98.1184 259° West  Level Estimated
12:01PM 19.5939 -98.2199 259° West  Level Estimated
12:02PM 19.5754 -98.3214 259° West  Level Estimated
12:03PM 19.5568 -98.4229 259° West  Level Estimated
12:04PM 19.5381 -98.5244 259° West  Level Estimated
12:05PM 19.5194 -98.6259 259° West  Level Estimated
12:06PM 19.5006 -98.7273 259° West  Level Estimated
12:07PM 19.4818 -98.8287 259° West  Level Estimated
12:08PM 19.4629 -98.9301 259° West  Level Estimated
12:09PM 19.4439 -99.0314 259° West  Level Estimated
12:10PM 19.4363 -99.0721 259° West  Level Estimated
12:11PM 19.4363 -99.0721 43° Northeast  Level Estimated
12:12PM 19.4363 -99.0721 43° Northeast  Level Estimated
12:13PM 19.4363 -99.0721 43° Northeast  Level Estimated
12:14PM 19.4363 -99.0721 43° Northeast  Level Estimated
12:15PM 19.4363 -99.0721 43° Northeast  Level Estimated
12:16PM 19.4363 -99.0721 43° Northeast  Level Estimated
12:17PM 19.4363 -99.0721 43° Northeast  Level Estimated
12:18PM 19.4363 -99.0721 43° Northeast  Level Estimated
12:19PM 19.4363 -99.0721 43° Northeast  Level Estimated
12:20PM 19.4363 -99.0721 43° Northeast  Level Estimated
12:21PM 19.4363 -99.0721 43° Northeast  Level Estimated
12:22PM 19.4363 -99.0721 43° Northeast  Level Estimated
12:23PM 19.4363 -99.0721 43° Northeast  Level Estimated